Time;durP1;ratioP1;P1;durP2;ratioP2;P2;SDS_P1;SDS_P2;PMS_P1;PMS_P2;Temp;Humidity;BMP_temperature;BMP_pressure;BME280_temperature;BME280_humidity;BME280_pressure;Samples;Min_cycle;Max_cycle;Signal;HPM_P1;HPM_P2
2022/06/21 00:04:09;;;;;;;4.70;2.00;;;25.50;55.50;;;;;;220138;1271;22557;-55
2022/06/21 00:09:14;;;;;;;2.50;1.90;;;25.40;55.40;;;;;;220054;1270;25451;-55
2022/06/21 00:14:16;;;;;;;3.30;2.20;;;25.40;55.70;;;;;;220110;1270;22560;-55
2022/06/21 00:19:22;;;;;;;2.40;1.60;;;25.40;55.40;;;;;;219963;1270;24246;-55
2022/06/21 00:24:24;;;;;;;4.00;2.00;;;25.40;55.40;;;;;;219732;1271;22572;-55
2022/06/21 00:29:26;;;;;;;5.60;2.20;;;25.40;55.40;;;;;;219947;1270;22586;-55
2022/06/21 00:34:29;;;;;;;3.80;2.10;;;25.40;55.40;;;;;;219826;1271;24248;-54
2022/06/21 00:39:41;;;;;;;5.10;2.40;;;25.40;55.40;;;;;;219771;1270;24365;-53
2022/06/21 00:44:51;;;;;;;4.90;2.10;;;25.40;55.40;;;;;;219721;1271;24338;-54
2022/06/21 00:49:56;;;;;;;5.60;1.90;;;25.40;55.40;;;;;;219920;1270;23959;-57
2022/06/21 00:55:16;;;;;;;2.00;1.50;;;25.40;55.60;;;;;;220181;1270;24240;-57
2022/06/21 01:00:27;;;;;;;3.60;1.80;;;25.30;55.20;;;;;;220026;1270;22590;-57
2022/06/21 01:06:03;;;;;;;2.50;1.80;;;25.30;55.30;;;;;;221532;1257;66454;-59
2022/06/21 01:11:30;;;;;;;2.40;1.60;;;25.30;55.30;;;;;;221053;1265;22697;-61
2022/06/21 01:16:35;;;;;;;2.60;1.70;;;25.30;55.20;;;;;;221085;1265;22627;-61
2022/06/21 01:21:39;;;;;;;2.60;1.80;;;25.30;55.30;;;;;;220489;1265;560693;-60
2022/06/21 01:26:47;;;;;;;2.10;1.60;;;25.30;55.20;;;;;;220792;1265;23830;-59
2022/06/21 01:32:04;;;;;;;7.00;2.40;;;25.30;55.10;;;;;;220547;1265;26756;-61
2022/06/21 01:37:06;;;;;;;4.30;1.80;;;25.30;55.20;;;;;;220882;1265;22672;-63
2022/06/21 01:42:14;;;;;;;2.00;1.50;;;25.30;55.60;;;;;;220954;1265;22554;-60
2022/06/21 01:47:24;;;;;;;3.30;1.80;;;25.20;55.10;;;;;;220835;1265;22807;-63
2022/06/21 01:52:32;;;;;;;3.90;1.80;;;25.20;55.10;;;;;;220822;1265;22556;-63
2022/06/21 01:57:40;;;;;;;2.30;1.70;;;25.20;55.20;;;;;;220790;1267;23968;-60
2022/06/21 02:03:04;;;;;;;3.80;2.00;;;25.20;55.40;;;;;;220909;1265;24410;-61
2022/06/21 02:08:13;;;;;;;2.10;1.60;;;25.20;55.10;;;;;;220195;1267;22537;-60
2022/06/21 02:13:26;;;;;;;2.70;1.70;;;25.20;55.20;;;;;;220529;1268;23976;-58
2022/06/21 02:18:32;;;;;;;4.80;2.00;;;25.20;55.40;;;;;;220576;1267;22725;-60
2022/06/21 02:23:34;;;;;;;2.00;1.50;;;25.10;55.00;;;;;;220428;1267;24034;-61
2022/06/21 02:28:38;;;;;;;2.40;1.30;;;25.10;55.30;;;;;;220523;1268;24303;-61
2022/06/21 02:33:55;;;;;;;2.00;1.60;;;25.10;55.10;;;;;;220894;1268;25246;-60
2022/06/21 02:39:09;;;;;;;4.70;2.00;;;25.10;55.00;;;;;;220930;1268;25366;-61
2022/06/21 02:44:22;;;;;;;5.10;2.20;;;25.10;55.00;;;;;;220730;1268;22708;-63
2022/06/21 02:49:39;;;;;;;3.90;2.00;;;25.10;55.00;;;;;;220580;1268;24199;-61
2022/06/21 02:54:52;;;;;;;3.30;2.00;;;25.10;55.00;;;;;;220552;1268;25257;-58
2022/06/21 03:00:19;;;;;;;3.70;2.00;;;25.10;55.00;;;;;;220379;1268;22541;-63
2022/06/21 03:05:25;;;;;;;2.30;1.50;;;25.00;54.90;;;;;;220880;1268;24300;-63
2022/06/21 03:10:33;;;;;;;2.60;1.80;;;25.10;54.90;;;;;;220639;1268;23914;-61
2022/06/21 03:15:36;;;;;;;1.90;1.50;;;25.10;55.30;;;;;;220678;1268;22535;-61
2022/06/21 03:20:40;;;;;;;5.30;2.10;;;25.10;54.90;;;;;;220689;1268;25253;-59
2022/06/21 03:25:46;;;;;;;2.00;1.50;;;25.00;54.80;;;;;;220820;1268;22561;-61
2022/06/21 03:30:52;;;;;;;5.50;1.90;;;25.00;54.90;;;;;;221070;1268;25254;-61
2022/06/21 03:35:58;;;;;;;3.20;1.80;;;25.00;54.80;;;;;;220885;1267;26773;-59
2022/06/21 03:46:35;;;;;;;4.90;1.90;;;25.00;54.80;;;;;;220579;1268;25328;-60
2022/06/21 03:51:42;;;;;;;2.40;1.60;;;25.00;55.10;;;;;;220438;1268;22535;-60
2022/06/21 03:56:57;;;;;;;2.60;1.70;;;25.00;54.80;;;;;;220860;1268;24290;-60
2022/06/21 04:02:12;;;;;;;4.50;1.90;;;25.00;54.80;;;;;;220922;1268;25254;-59
2022/06/21 04:07:23;;;;;;;3.40;1.80;;;25.00;54.80;;;;;;220958;1267;23056;-60
2022/06/21 04:12:29;;;;;;;4.50;1.80;;;24.90;54.70;;;;;;221051;1268;25232;-60
2022/06/21 04:17:44;;;;;;;2.40;1.60;;;25.00;54.70;;;;;;220763;1268;24271;-63
2022/06/21 04:22:55;;;;;;;2.60;1.60;;;24.90;54.70;;;;;;220900;1268;24210;-60
2022/06/21 04:28:06;;;;;;;1.90;1.40;;;24.90;54.60;;;;;;220867;1268;22715;-65
2022/06/21 04:33:18;;;;;;;3.40;1.90;;;24.90;54.60;;;;;;220812;1268;22710;-62
2022/06/21 04:38:35;;;;;;;2.80;1.50;;;24.90;54.70;;;;;;220463;1268;22652;-60
2022/06/21 04:43:41;;;;;;;2.40;1.40;;;24.90;54.60;;;;;;220730;1267;24258;-63
2022/06/21 04:49:09;;;;;;;2.00;1.40;;;24.90;54.60;;;;;;220624;1267;25235;-60
2022/06/21 04:54:24;;;;;;;1.80;1.30;;;24.90;54.60;;;;;;220361;1267;22528;-59
2022/06/21 04:59:38;;;;;;;2.20;1.60;;;24.90;54.60;;;;;;220622;1268;26194;-62
2022/06/21 05:04:41;;;;;;;3.60;1.70;;;24.90;54.80;;;;;;220639;1268;24544;-63
2022/06/21 05:09:45;;;;;;;2.20;1.60;;;24.90;54.60;;;;;;220803;1268;24409;-59
2022/06/21 05:14:55;;;;;;;2.20;1.20;;;24.90;54.60;;;;;;220798;1268;22539;-60
2022/06/21 05:20:03;;;;;;;1.70;1.30;;;24.90;54.50;;;;;;220880;1268;22551;-60
2022/06/21 05:25:17;;;;;;;3.00;1.90;;;24.90;54.50;;;;;;220760;1268;22546;-60
2022/06/21 05:30:50;;;;;;;2.60;1.60;;;24.90;54.50;;;;;;220882;1267;25318;-61
2022/06/21 05:35:52;;;;;;;3.50;1.60;;;24.90;54.50;;;;;;220477;1268;22675;-60
2022/06/21 05:40:59;;;;;;;2.20;1.40;;;24.90;54.40;;;;;;220973;1268;25251;-60
2022/06/21 05:46:09;;;;;;;2.70;1.50;;;24.90;54.50;;;;;;220927;1268;23906;-62
2022/06/21 05:51:16;;;;;;;3.90;1.80;;;24.90;54.70;;;;;;220933;1268;24376;-62
2022/06/21 05:56:25;;;;;;;4.60;1.90;;;24.90;54.40;;;;;;220707;1268;22532;-61
2022/06/21 06:01:34;;;;;;;3.70;1.50;;;24.90;54.50;;;;;;220447;1268;25495;-63
2022/06/21 06:06:40;;;;;;;2.20;1.50;;;24.90;54.40;;;;;;220714;1268;25558;-60
2022/06/21 06:11:58;;;;;;;2.10;1.50;;;24.90;54.70;;;;;;220834;1268;25242;-61
2022/06/21 06:17:10;;;;;;;3.40;1.80;;;24.90;54.20;;;;;;220906;1268;22557;-62
2022/06/21 06:22:49;;;;;;;2.20;1.40;;;24.90;54.30;;;;;;220435;1268;22560;-60
2022/06/21 06:28:18;;;;;;;1.80;1.30;;;24.90;54.30;;;;;;220677;1267;22557;-64
2022/06/21 06:33:40;;;;;;;5.50;1.70;;;24.90;54.20;;;;;;220692;1268;25314;-62
2022/06/21 06:38:44;;;;;;;2.30;1.50;;;24.90;55.00;;;;;;220761;1268;22751;-60
2022/06/21 06:43:55;;;;;;;3.70;1.70;;;24.90;54.30;;;;;;220521;1268;24208;-60
2022/06/21 06:49:29;;;;;;;2.10;1.50;;;24.90;54.30;;;;;;220882;1268;22566;-60
2022/06/21 06:54:44;;;;;;;1.60;1.20;;;24.90;54.20;;;;;;220845;1268;26737;-61
2022/06/21 06:59:47;;;;;;;3.30;1.60;;;24.90;54.50;;;;;;220264;1267;22573;-62
2022/06/21 07:05:02;;;;;;;2.70;1.40;;;24.90;54.30;;;;;;220572;1268;22689;-61
2022/06/21 07:10:11;;;;;;;3.50;1.60;;;24.90;54.20;;;;;;220563;1267;22556;-61
2022/06/21 07:15:14;;;;;;;3.50;1.30;;;24.90;54.20;;;;;;220460;1268;22557;-60
2022/06/21 07:20:20;;;;;;;2.60;1.40;;;24.90;54.20;;;;;;220835;1268;22539;-64
2022/06/21 07:25:38;;;;;;;2.00;1.30;;;24.90;54.10;;;;;;220677;1268;22579;-62
2022/06/21 07:30:46;;;;;;;1.70;1.30;;;24.90;54.10;;;;;;220963;1267;23301;-63
2022/06/21 07:36:19;;;;;;;1.90;1.30;;;24.90;54.10;;;;;;220531;1268;24289;-62
2022/06/21 07:41:32;;;;;;;2.00;1.40;;;24.90;54.00;;;;;;220681;1268;22553;-57
2022/06/21 07:46:52;;;;;;;1.80;1.30;;;24.90;54.00;;;;;;220473;1267;22580;-64
2022/06/21 07:52:06;;;;;;;4.40;1.60;;;24.90;53.90;;;;;;220786;1268;24361;-64
2022/06/21 07:57:16;;;;;;;3.90;1.50;;;24.90;53.80;;;;;;220525;1268;24807;-61
2022/06/21 08:08:34;;;;;;;4.40;1.60;;;24.90;53.80;;;;;;221130;1270;24376;-60
2022/06/21 08:13:40;;;;;;;3.50;1.60;;;25.00;53.90;;;;;;220791;1270;23976;-61
2022/06/21 08:18:48;;;;;;;8.30;1.60;;;25.00;54.20;;;;;;220743;1270;26615;-59
2022/06/21 08:24:00;;;;;;;3.30;1.50;;;24.90;54.10;;;;;;220501;1269;23980;-61
2022/06/21 08:29:20;;;;;;;3.50;1.40;;;24.90;54.00;;;;;;220570;1268;25334;-60
2022/06/21 08:34:34;;;;;;;5.50;1.90;;;25.00;53.70;;;;;;220847;1268;24345;-59
2022/06/21 08:39:51;;;;;;;2.50;1.40;;;25.00;53.70;;;;;;220917;1268;22648;-62
2022/06/21 08:45:42;;;;;;;2.80;1.60;;;25.00;53.60;;;;;;220174;1268;24239;-63
2022/06/21 08:51:10;;;;;;;2.10;1.30;;;25.10;53.60;;;;;;221005;1268;25535;-60
2022/06/21 08:56:31;;;;;;;4.40;1.50;;;25.00;53.10;;;;;;220529;1268;22688;-60
2022/06/21 09:01:55;;;;;;;6.90;2.00;;;25.10;53.50;;;;;;220739;1270;22691;-61
2022/06/21 09:07:22;;;;;;;5.40;1.60;;;25.10;53.40;;;;;;220583;1268;22688;-61
2022/06/21 09:13:04;;;;;;;2.60;1.60;;;25.10;53.40;;;;;;220854;1268;25389;-62
2022/06/21 09:18:31;;;;;;;4.60;1.50;;;25.10;53.80;;;;;;220572;1268;25245;-61
2022/06/21 09:23:52;;;;;;;3.20;1.70;;;25.10;53.30;;;;;;220608;1268;24214;-61
2022/06/21 09:29:11;;;;;;;5.10;1.80;;;25.10;53.20;;;;;;220845;1268;24526;-62
2022/06/21 09:34:33;;;;;;;7.10;1.80;;;25.10;53.20;;;;;;220517;1268;22635;-61
2022/06/21 09:39:46;;;;;;;4.10;1.50;;;25.10;53.30;;;;;;220705;1268;24302;-63
2022/06/21 09:45:08;;;;;;;3.10;1.60;;;25.10;53.10;;;;;;221067;1269;26494;-61
2022/06/21 09:50:21;;;;;;;3.00;1.50;;;25.10;52.60;;;;;;220677;1268;24486;-61
2022/06/21 09:55:46;;;;;;;5.50;1.70;;;25.20;53.10;;;;;;220780;1268;22557;-61
2022/06/21 10:01:11;;;;;;;2.20;1.40;;;25.10;53.00;;;;;;221071;1268;22562;-60
2022/06/21 10:06:25;;;;;;;2.40;1.40;;;25.10;52.90;;;;;;220911;1270;22544;-60
2022/06/21 10:11:33;;;;;;;4.70;1.90;;;25.20;52.90;;;;;;220592;1268;22781;-61
2022/06/21 10:16:58;;;;;;;4.40;1.70;;;25.20;53.00;;;;;;220623;1268;22684;-64
2022/06/21 10:22:00;;;;;;;2.60;1.40;;;25.20;52.80;;;;;;220733;1268;22534;-60
2022/06/21 10:27:33;;;;;;;3.10;1.60;;;25.20;52.80;;;;;;220809;1269;24418;-61
2022/06/21 10:33:00;;;;;;;3.20;1.50;;;25.20;52.70;;;;;;220875;1269;23106;-61
2022/06/21 10:38:31;;;;;;;3.70;1.50;;;25.20;52.80;;;;;;220552;1268;22532;-61
2022/06/21 10:44:05;;;;;;;4.70;1.80;;;25.20;52.60;;;;;;220712;1268;22701;-61
2022/06/21 10:49:25;;;;;;;2.80;1.50;;;25.30;52.50;;;;;;220686;1268;24246;-64
2022/06/21 10:54:43;;;;;;;;;;;25.20;52.50;;;;;;220858;1269;24290;-64
2022/06/21 11:05:26;;;;;;;;;;;25.20;52.50;;;;;;220765;1268;25285;-63
2022/06/21 11:11:09;;;;;;;2.40;1.40;;;25.20;52.50;;;;;;220878;1268;25337;-62
2022/06/21 11:16:23;;;;;;;2.90;2.00;;;25.20;52.40;;;;;;220829;1268;22541;-62
2022/06/21 11:21:40;;;;;;;2.90;1.40;;;25.30;52.50;;;;;;221092;1268;22688;-61
2022/06/21 11:26:42;;;;;;;2.10;1.50;;;25.30;52.40;;;;;;220938;1268;22551;-59
2022/06/21 11:32:42;;;;;;;3.00;1.60;;;25.30;52.30;;;;;;221083;1268;25330;-60
2022/06/21 11:38:14;;;;;;;1.70;1.20;;;25.30;52.30;;;;;;220665;1270;22574;-61
2022/06/21 11:43:27;;;;;;;3.70;1.60;;;25.30;52.40;;;;;;220474;1268;24289;-61
2022/06/21 11:48:43;;;;;;;4.20;1.70;;;25.30;52.20;;;;;;220831;1268;22535;-61
2022/06/21 11:54:09;;;;;;;4.80;1.50;;;25.30;52.20;;;;;;220625;1268;24414;-62
2022/06/21 11:59:22;;;;;;;3.20;1.40;;;25.30;52.20;;;;;;221084;1268;22562;-64
2022/06/21 12:04:24;;;;;;;4.90;1.70;;;25.40;52.30;;;;;;220759;1268;22608;-61
2022/06/21 12:09:39;;;;;;;3.60;1.80;;;25.40;52.20;;;;;;220793;1269;24305;-61
2022/06/21 12:15:19;;;;;;;2.90;1.50;;;25.40;52.20;;;;;;220625;1268;24278;-62
2022/06/21 12:20:34;;;;;;;2.10;1.50;;;25.40;52.20;;;;;;220751;1268;24220;-62
2022/06/21 12:25:37;;;;;;;4.00;1.60;;;25.40;52.20;;;;;;220816;1268;25351;-61
2022/06/21 12:30:42;;;;;;;3.10;1.60;;;25.40;52.20;;;;;;221038;1268;23918;-62
2022/06/21 12:35:57;;;;;;;2.90;1.50;;;25.40;52.50;;;;;;220637;1268;22533;-61
2022/06/21 12:41:09;;;;;;;2.90;1.40;;;25.40;52.20;;;;;;220326;1267;22550;-62
2022/06/21 12:46:30;;;;;;;2.10;1.50;;;25.40;52.10;;;;;;220820;1267;22582;-62
2022/06/21 12:51:56;;;;;;;3.50;1.40;;;25.40;52.10;;;;;;220899;1268;22820;-62
2022/06/21 12:57:11;;;;;;;2.40;1.40;;;25.40;52.10;;;;;;220687;1268;22560;-62
2022/06/21 13:02:45;;;;;;;3.70;1.50;;;25.40;52.10;;;;;;221004;1268;22587;-60
2022/06/21 13:08:39;;;;;;;2.60;1.30;;;25.40;52.20;;;;;;220792;1268;22564;-58
2022/06/21 13:14:00;;;;;;;4.40;1.60;;;25.40;52.20;;;;;;220188;1268;22697;-59
2022/06/21 13:19:22;;;;;;;8.00;2.10;;;25.40;52.10;;;;;;220630;1268;615053;-59
2022/06/21 13:24:44;;;;;;;4.10;1.70;;;25.40;52.40;;;;;;220687;1267;24290;-62
2022/06/21 13:29:54;;;;;;;2.50;1.50;;;25.40;52.10;;;;;;220941;1268;24214;-61
2022/06/21 13:35:27;;;;;;;4.30;1.60;;;25.40;52.10;;;;;;220665;1268;22528;-50
2022/06/21 13:40:44;;;;;;;2.80;1.50;;;25.40;52.10;;;;;;220637;1267;25445;-50
2022/06/21 13:46:20;;;;;;;3.80;1.60;;;25.40;52.40;;;;;;221065;1270;22537;-53
2022/06/21 13:51:48;;;;;;;2.00;1.30;;;25.40;52.10;;;;;;220876;1268;24260;-55
2022/06/21 13:56:51;;;;;;;2.80;1.60;;;25.40;52.00;;;;;;220840;1268;22566;-52
2022/06/21 14:02:04;;;;;;;3.20;1.60;;;25.40;52.00;;;;;;220866;1268;22737;-49
2022/06/21 14:07:44;;;;;;;4.90;2.00;;;25.40;52.40;;;;;;220865;1268;25403;-52
2022/06/21 14:13:11;;;;;;;2.40;1.60;;;25.40;52.00;;;;;;221069;1268;24463;-50
2022/06/21 14:18:32;;;;;;;3.50;1.60;;;25.50;52.10;;;;;;220659;1268;22543;-56
2022/06/21 14:23:34;;;;;;;4.30;1.60;;;25.40;52.00;;;;;;220850;1268;24323;-52
2022/06/21 14:28:52;;;;;;;4.30;1.70;;;25.40;52.00;;;;;;220835;1268;24290;-48
2022/06/21 14:34:04;;;;;;;2.60;1.50;;;25.50;52.10;;;;;;220851;1267;24379;-53
2022/06/21 14:39:33;;;;;;;4.00;1.70;;;25.40;52.00;;;;;;220553;1268;25239;-48
2022/06/21 14:45:16;;;;;;;5.30;2.00;;;25.40;52.00;;;;;;220628;1268;22557;-49
2022/06/21 14:51:06;;;;;;;2.20;1.40;;;25.40;52.00;;;;;;220509;1268;24281;-54
2022/06/21 14:56:17;;;;;;;4.90;1.80;;;25.50;52.10;;;;;;220279;1268;24845;-51
2022/06/21 15:01:36;;;;;;;2.40;1.50;;;25.40;52.00;;;;;;220698;1268;25481;-51
2022/06/21 15:06:43;;;;;;;2.70;1.70;;;25.40;51.80;;;;;;221043;1268;24383;-49
2022/06/21 15:11:56;;;;;;;6.30;1.90;;;25.50;52.10;;;;;;220825;1268;26670;-50
2022/06/21 15:17:33;;;;;;;4.00;1.70;;;25.40;52.10;;;;;;221097;1268;24218;-49
2022/06/21 15:23:18;;;;;;;2.70;1.40;;;25.40;52.10;;;;;;220982;1268;22550;-50
2022/06/21 15:28:32;;;;;;;4.00;1.80;;;25.50;52.10;;;;;;220907;1268;24303;-49
2022/06/21 15:33:51;;;;;;;1.90;1.30;;;25.40;52.00;;;;;;220976;1267;24249;-51
2022/06/21 15:39:15;;;;;;;3.70;1.60;;;25.50;52.70;;;;;;220710;1268;24252;-53
2022/06/21 15:45:08;;;;;;;2.10;1.40;;;25.50;52.10;;;;;;221027;1268;25454;-50
2022/06/21 15:50:53;;;;;;;3.60;1.70;;;25.50;52.40;;;;;;220835;1268;24259;-48
2022/06/21 15:56:21;;;;;;;2.60;1.40;;;25.40;52.00;;;;;;220978;1268;22697;-50
2022/06/21 16:01:27;;;;;;;1.80;1.20;;;25.40;52.00;;;;;;220987;1268;22536;-48
2022/06/21 16:06:43;;;;;;;2.90;1.40;;;25.40;52.00;;;;;;220857;1268;25235;-49
2022/06/21 16:12:04;;;;;;;4.70;1.60;;;25.40;52.10;;;;;;220656;1268;23035;-49
2022/06/21 16:17:29;;;;;;;2.50;1.40;;;25.40;52.10;;;;;;220768;1268;22563;-47
2022/06/21 16:23:04;;;;;;;2.10;1.40;;;25.40;52.10;;;;;;220601;1267;24311;-52
2022/06/21 16:28:48;;;;;;;3.30;1.60;;;25.40;52.80;;;;;;220521;1267;22618;-50
2022/06/21 16:34:29;;;;;;;2.30;1.30;;;25.40;52.30;;;;;;221042;1268;24268;-51
2022/06/21 16:39:47;;;;;;;2.60;1.20;;;25.40;52.20;;;;;;221022;1268;22608;-55
2022/06/21 16:45:04;;;;;;;2.40;1.40;;;25.40;52.30;;;;;;220728;1268;26452;-52
2022/06/21 16:50:44;;;;;;;2.30;1.20;;;25.40;52.40;;;;;;220983;1268;22531;-52
2022/06/21 16:56:26;;;;;;;1.90;1.30;;;25.40;52.10;;;;;;220913;1268;25554;-51
2022/06/21 17:02:07;;;;;;;3.90;1.50;;;25.40;52.10;;;;;;220471;1268;22705;-51
2022/06/21 17:07:33;;;;;;;2.50;1.20;;;25.40;52.50;;;;;;220728;1268;24415;-49
2022/06/21 17:12:52;;;;;;;4.20;1.80;;;25.40;52.10;;;;;;220806;1268;24291;-50
2022/06/21 17:18:20;;;;;;;3.20;1.30;;;25.40;52.20;;;;;;220778;1267;24208;-48
2022/06/21 17:24:24;;;;;;;2.90;1.40;;;25.30;52.10;;;;;;220706;1268;22563;-50
2022/06/21 17:29:50;;;;;;;3.40;1.60;;;25.40;52.20;;;;;;220498;1267;24405;-49
2022/06/21 17:35:09;;;;;;;5.70;1.70;;;25.40;52.20;;;;;;220676;1267;25355;-49
2022/06/21 17:40:31;;;;;;;1.70;1.10;;;25.40;52.50;;;;;;221051;1268;25432;-53
2022/06/21 17:45:51;;;;;;;1.50;1.20;;;25.30;52.50;;;;;;221031;1268;22550;-48
2022/06/21 17:50:58;;;;;;;2.10;1.40;;;25.40;52.20;;;;;;220931;1267;24286;-50
2022/06/21 17:56:12;;;;;;;2.00;1.30;;;25.40;52.20;;;;;;221013;1268;22541;-47
2022/06/21 18:01:44;;;;;;;3.20;1.40;;;25.30;52.20;;;;;;221047;1268;22779;-48
2022/06/21 18:07:03;;;;;;;5.40;1.80;;;25.30;52.20;;;;;;220632;1267;26588;-51
2022/06/21 18:12:33;;;;;;;3.30;1.40;;;25.30;52.50;;;;;;220684;1268;22539;-50
2022/06/21 18:18:01;;;;;;;2.90;1.40;;;25.30;52.20;;;;;;220443;1267;24339;-50
2022/06/21 18:23:11;;;;;;;1.60;1.30;;;25.30;52.30;;;;;;220694;1267;22544;-49
2022/06/21 18:28:51;;;;;;;1.80;1.30;;;25.30;52.30;;;;;;221119;1268;22557;-50
2022/06/21 18:33:55;;;;;;;1.70;1.30;;;25.30;52.30;;;;;;220833;1268;22630;-49
2022/06/21 18:39:01;;;;;;;3.90;1.30;;;25.30;52.30;;;;;;221064;1268;25316;-47
2022/06/21 18:44:25;;;;;;;3.10;1.30;;;25.30;51.90;;;;;;221029;1268;25244;-47
2022/06/21 18:49:45;;;;;;;2.90;1.40;;;25.20;52.30;;;;;;220813;1268;24296;-51
2022/06/21 18:55:10;;;;;;;1.90;1.20;;;25.20;52.30;;;;;;220666;1268;22962;-53
2022/06/21 19:00:29;;;;;;;2.30;1.50;;;25.20;52.20;;;;;;220877;1268;23951;-51
2022/06/21 19:11:48;;;;;;;1.90;1.30;;;25.20;52.60;;;;;;220770;1268;25412;-50
2022/06/21 19:17:15;;;;;;;2.60;1.40;;;25.20;52.80;;;;;;220762;1268;25585;-52
2022/06/21 19:22:42;;;;;;;4.20;1.70;;;25.20;53.00;;;;;;220689;1268;22560;-52
2022/06/21 19:28:19;;;;;;;2.60;1.40;;;25.10;52.20;;;;;;220515;1268;22756;-50
2022/06/21 19:33:32;;;;;;;1.70;1.30;;;25.20;52.70;;;;;;220938;1268;22550;-49
2022/06/21 19:39:12;;;;;;;3.00;1.30;;;25.20;52.40;;;;;;220497;1267;26169;-48
2022/06/21 19:44:39;;;;;;;2.00;1.30;;;25.10;52.40;;;;;;220948;1268;25253;-48
2022/06/21 19:49:46;;;;;;;2.50;1.40;;;25.10;52.40;;;;;;221109;1268;24248;-51
2022/06/21 19:54:51;;;;;;;2.20;1.30;;;25.10;52.40;;;;;;220569;1266;22551;-51
2022/06/21 20:00:11;;;;;;;3.00;1.50;;;25.10;52.30;;;;;;221011;1268;24206;-47
2022/06/21 20:05:27;;;;;;;2.00;1.40;;;25.10;52.80;;;;;;220958;1268;22605;-51
2022/06/21 20:10:45;;;;;;;3.00;1.40;;;25.10;52.50;;;;;;221040;1267;22537;-51
2022/06/21 20:16:09;;;;;;;;;;;25.10;52.60;;;;;;220863;1266;25126;-48
2022/06/21 20:21:43;;;;;;;4.90;1.80;;;25.10;52.90;;;;;;220872;1268;26479;-50
2022/06/21 20:27:17;;;;;;;3.70;1.60;;;25.10;52.60;;;;;;221070;1268;24275;-49
2022/06/21 20:32:41;;;;;;;3.80;1.50;;;25.00;52.60;;;;;;220612;1267;23125;-48
2022/06/21 20:37:59;;;;;;;2.40;1.40;;;25.00;52.60;;;;;;220898;1268;22660;-48
2022/06/21 20:43:13;;;;;;;3.20;1.70;;;25.00;52.90;;;;;;221065;1268;23168;-50
2022/06/21 20:48:35;;;;;;;3.50;1.70;;;25.00;52.60;;;;;;220929;1268;23910;-47
2022/06/21 20:53:38;;;;;;;1.80;1.30;;;25.00;53.00;;;;;;220990;1268;25060;-55
2022/06/21 20:58:44;;;;;;;4.30;1.80;;;25.00;52.70;;;;;;220736;1267;22609;-48
2022/06/21 21:03:52;;;;;;;4.30;1.70;;;24.90;52.70;;;;;;220944;1268;24219;-50
2022/06/21 21:09:02;;;;;;;3.70;1.70;;;24.90;52.70;;;;;;220832;1268;22646;-49
2022/06/21 21:14:13;;;;;;;2.70;1.50;;;24.90;52.70;;;;;;220792;1268;25326;-50
2022/06/21 21:19:28;;;;;;;2.10;1.50;;;24.90;53.10;;;;;;220698;1268;22547;-48
2022/06/21 21:25:11;;;;;;;3.50;1.50;;;24.90;52.80;;;;;;220832;1267;24409;-49
2022/06/21 21:30:18;;;;;;;2.80;1.50;;;24.90;52.80;;;;;;220718;1268;25811;-49
2022/06/21 21:35:51;;;;;;;2.10;1.50;;;24.90;53.20;;;;;;220694;1268;24340;-51
2022/06/21 21:41:15;;;;;;;2.80;1.40;;;24.80;52.80;;;;;;220861;1268;24206;-49
2022/06/21 21:46:27;;;;;;;2.60;1.40;;;24.80;52.90;;;;;;220757;1267;25526;-50
2022/06/21 21:51:39;;;;;;;3.50;1.80;;;24.80;53.00;;;;;;220786;1268;24287;-49
2022/06/21 21:56:46;;;;;;;1.80;1.30;;;24.80;53.20;;;;;;220657;1268;22589;-47
2022/06/21 22:01:49;;;;;;;1.90;1.40;;;24.80;53.10;;;;;;220973;1267;23612;-48
2022/06/21 22:06:57;;;;;;;2.80;1.50;;;24.70;52.90;;;;;;220594;1268;22551;-49
2022/06/21 22:12:06;;;;;;;1.90;1.30;;;24.70;52.90;;;;;;220867;1268;22535;-52
2022/06/21 22:17:08;;;;;;;4.80;1.90;;;24.70;53.00;;;;;;220484;1267;25605;-49
2022/06/21 22:22:30;;;;;;;2.10;1.30;;;24.70;53.20;;;;;;220859;1268;22553;-49
2022/06/21 22:27:36;;;;;;;2.30;1.30;;;24.70;52.90;;;;;;220626;1268;25372;-51
2022/06/21 22:32:39;;;;;;;2.90;1.60;;;24.70;53.70;;;;;;221039;1268;22569;-50
2022/06/21 22:37:44;;;;;;;3.90;1.80;;;24.70;53.00;;;;;;220518;1268;22538;-49
2022/06/21 22:42:47;;;;;;;3.20;1.40;;;24.60;53.10;;;;;;220840;1268;25520;-50
2022/06/21 22:47:55;;;;;;;2.10;1.40;;;24.60;53.00;;;;;;220791;1268;22554;-51
2022/06/21 22:53:02;;;;;;;2.80;1.60;;;24.60;53.00;;;;;;220678;1268;24414;-50
2022/06/21 22:58:15;;;;;;;5.30;1.80;;;24.60;53.00;;;;;;220789;1268;25394;-48
2022/06/21 23:03:32;;;;;;;4.00;1.60;;;24.60;53.10;;;;;;220731;1268;23938;-50
2022/06/21 23:08:42;;;;;;;2.80;1.70;;;24.60;53.30;;;;;;221056;1268;23150;-48
2022/06/21 23:14:09;;;;;;;3.20;1.50;;;24.60;52.90;;;;;;220582;1268;22590;-48
2022/06/21 23:19:18;;;;;;;3.30;1.50;;;24.60;52.90;;;;;;220768;1268;22549;-49
2022/06/21 23:24:21;;;;;;;4.10;1.40;;;24.60;52.90;;;;;;220743;1268;22592;-48
2022/06/21 23:29:29;;;;;;;2.40;1.60;;;24.50;52.90;;;;;;220574;1268;24416;-48
2022/06/21 23:34:42;;;;;;;3.30;1.60;;;24.50;53.20;;;;;;220877;1268;24309;-49
2022/06/21 23:39:46;;;;;;;2.40;1.50;;;24.50;53.00;;;;;;220817;1268;22566;-48
2022/06/21 23:44:49;;;;;;;2.30;1.50;;;24.50;53.00;;;;;;220847;1268;22566;-51
2022/06/21 23:49:52;;;;;;;2.70;1.40;;;24.50;53.00;;;;;;220672;1268;24376;-49
2022/06/21 23:54:58;;;;;;;2.20;1.40;;;24.50;53.00;;;;;;220939;1268;24469;-50
